sensor_id;sensor_type;location;lat;lon;timestamp;P1;durP1;ratioP1;P2;durP2;ratioP2
67941;SDS011;54731;42.600;23.476;2022-12-13T00:01:23;5.27;;;2.87;;
67941;SDS011;54731;42.600;23.476;2022-12-13T00:03:53;6.72;;;3.90;;
67941;SDS011;54731;42.600;23.476;2022-12-13T00:06:20;6.30;;;2.75;;
67941;SDS011;54731;42.600;23.476;2022-12-13T00:08:46;9.63;;;3.50;;
67941;SDS011;54731;42.600;23.476;2022-12-13T00:11:12;6.25;;;3.22;;
67941;SDS011;54731;42.600;23.476;2022-12-13T00:13:39;8.00;;;3.05;;
67941;SDS011;54731;42.600;23.476;2022-12-13T00:16:06;6.65;;;3.65;;
67941;SDS011;54731;42.600;23.476;2022-12-13T00:18:39;5.00;;;3.03;;
67941;SDS011;54731;42.600;23.476;2022-12-13T00:21:05;8.00;;;3.17;;
67941;SDS011;54731;42.600;23.476;2022-12-13T00:23:32;6.15;;;2.63;;
67941;SDS011;54731;42.600;23.476;2022-12-13T00:26:05;6.57;;;3.17;;
67941;SDS011;54731;42.600;23.476;2022-12-13T00:28:33;6.60;;;2.78;;
67941;SDS011;54731;42.600;23.476;2022-12-13T00:30:59;6.20;;;3.23;;
67941;SDS011;54731;42.600;23.476;2022-12-13T00:33:25;5.05;;;3.00;;
67941;SDS011;54731;42.600;23.476;2022-12-13T00:35:51;4.95;;;3.28;;
67941;SDS011;54731;42.600;23.476;2022-12-13T00:38:17;5.90;;;3.33;;
67941;SDS011;54731;42.600;23.476;2022-12-13T00:40:42;6.27;;;3.13;;
67941;SDS011;54731;42.600;23.476;2022-12-13T00:43:08;5.97;;;3.07;;
67941;SDS011;54731;42.600;23.476;2022-12-13T00:45:34;5.35;;;3.08;;
67941;SDS011;54731;42.600;23.476;2022-12-13T00:47:59;6.07;;;3.40;;
67941;SDS011;54731;42.600;23.476;2022-12-13T00:50:25;5.25;;;3.25;;
67941;SDS011;54731;42.600;23.476;2022-12-13T00:52:51;7.05;;;3.00;;
67941;SDS011;54731;42.600;23.476;2022-12-13T00:55:16;8.50;;;3.30;;
67941;SDS011;54731;42.600;23.476;2022-12-13T00:57:42;6.07;;;3.53;;
67941;SDS011;54731;42.600;23.476;2022-12-13T01:00:07;5.30;;;3.00;;
67941;SDS011;54731;42.600;23.476;2022-12-13T01:02:33;7.10;;;3.88;;
67941;SDS011;54731;42.600;23.476;2022-12-13T01:04:59;7.07;;;3.30;;
67941;SDS011;54731;42.600;23.476;2022-12-13T01:07:24;5.83;;;2.90;;
67941;SDS011;54731;42.600;23.476;2022-12-13T01:09:50;6.45;;;3.47;;
67941;SDS011;54731;42.600;23.476;2022-12-13T01:12:15;5.90;;;3.30;;
67941;SDS011;54731;42.600;23.476;2022-12-13T01:14:41;6.93;;;3.63;;
67941;SDS011;54731;42.600;23.476;2022-12-13T01:17:07;11.25;;;7.35;;
67941;SDS011;54731;42.600;23.476;2022-12-13T01:19:32;9.90;;;5.85;;
67941;SDS011;54731;42.600;23.476;2022-12-13T01:22:01;8.77;;;6.10;;
67941;SDS011;54731;42.600;23.476;2022-12-13T01:24:29;7.43;;;4.43;;
67941;SDS011;54731;42.600;23.476;2022-12-13T01:26:55;6.25;;;3.80;;
67941;SDS011;54731;42.600;23.476;2022-12-13T01:29:22;8.32;;;4.63;;
67941;SDS011;54731;42.600;23.476;2022-12-13T01:31:48;10.13;;;5.15;;
67941;SDS011;54731;42.600;23.476;2022-12-13T01:34:15;17.93;;;8.80;;
67941;SDS011;54731;42.600;23.476;2022-12-13T01:36:43;17.83;;;7.95;;
67941;SDS011;54731;42.600;23.476;2022-12-13T01:39:10;10.00;;;6.03;;
67941;SDS011;54731;42.600;23.476;2022-12-13T01:41:36;9.90;;;5.55;;
67941;SDS011;54731;42.600;23.476;2022-12-13T01:44:03;11.50;;;5.80;;
67941;SDS011;54731;42.600;23.476;2022-12-13T01:46:33;12.02;;;7.10;;
67941;SDS011;54731;42.600;23.476;2022-12-13T01:49:12;21.33;;;10.15;;
67941;SDS011;54731;42.600;23.476;2022-12-13T01:51:50;19.10;;;8.70;;
67941;SDS011;54731;42.600;23.476;2022-12-13T01:54:24;8.13;;;4.68;;
67941;SDS011;54731;42.600;23.476;2022-12-13T01:56:54;7.65;;;3.65;;
67941;SDS011;54731;42.600;23.476;2022-12-13T01:59:21;6.80;;;3.35;;
67941;SDS011;54731;42.600;23.476;2022-12-13T02:01:47;12.30;;;6.22;;
67941;SDS011;54731;42.600;23.476;2022-12-13T02:04:25;10.00;;;5.50;;
67941;SDS011;54731;42.600;23.476;2022-12-13T02:06:55;10.77;;;5.68;;
67941;SDS011;54731;42.600;23.476;2022-12-13T02:09:21;13.68;;;6.70;;
67941;SDS011;54731;42.600;23.476;2022-12-13T02:11:48;16.38;;;8.50;;
67941;SDS011;54731;42.600;23.476;2022-12-13T02:14:13;26.43;;;12.20;;
67941;SDS011;54731;42.600;23.476;2022-12-13T02:16:49;10.88;;;5.70;;
67941;SDS011;54731;42.600;23.476;2022-12-13T02:19:27;5.18;;;3.13;;
67941;SDS011;54731;42.600;23.476;2022-12-13T02:27:37;5.68;;;3.15;;
67941;SDS011;54731;42.600;23.476;2022-12-13T02:32:54;6.75;;;3.80;;
67941;SDS011;54731;42.600;23.476;2022-12-13T02:46:45;6.20;;;3.90;;
67941;SDS011;54731;42.600;23.476;2022-12-13T02:49:14;6.17;;;3.37;;
67941;SDS011;54731;42.600;23.476;2022-12-13T02:51:41;8.63;;;4.90;;
67941;SDS011;54731;42.600;23.476;2022-12-13T02:54:07;6.93;;;3.60;;
67941;SDS011;54731;42.600;23.476;2022-12-13T02:56:33;7.03;;;3.35;;
67941;SDS011;54731;42.600;23.476;2022-12-13T02:58:59;6.03;;;3.37;;
67941;SDS011;54731;42.600;23.476;2022-12-13T03:01:39;11.02;;;4.68;;
67941;SDS011;54731;42.600;23.476;2022-12-13T03:10:01;8.60;;;3.70;;
67941;SDS011;54731;42.600;23.476;2022-12-13T03:17:49;5.82;;;3.08;;
67941;SDS011;54731;42.600;23.476;2022-12-13T03:20:28;18.90;;;7.22;;
67941;SDS011;54731;42.600;23.476;2022-12-13T03:22:55;57.70;;;21.10;;
67941;SDS011;54731;42.600;23.476;2022-12-13T03:25:26;33.95;;;15.18;;
67941;SDS011;54731;42.600;23.476;2022-12-13T03:27:54;8.05;;;4.82;;
67941;SDS011;54731;42.600;23.476;2022-12-13T03:30:20;8.40;;;4.37;;
67941;SDS011;54731;42.600;23.476;2022-12-13T03:32:49;9.80;;;5.15;;
67941;SDS011;54731;42.600;23.476;2022-12-13T03:35:54;6.25;;;3.63;;
67941;SDS011;54731;42.600;23.476;2022-12-13T03:38:27;4.50;;;2.60;;
67941;SDS011;54731;42.600;23.476;2022-12-13T03:41:00;6.13;;;3.50;;
67941;SDS011;54731;42.600;23.476;2022-12-13T03:43:28;8.15;;;3.53;;
67941;SDS011;54731;42.600;23.476;2022-12-13T03:45:54;7.25;;;3.53;;
67941;SDS011;54731;42.600;23.476;2022-12-13T03:48:28;4.80;;;2.60;;
67941;SDS011;54731;42.600;23.476;2022-12-13T03:50:59;5.72;;;2.97;;
67941;SDS011;54731;42.600;23.476;2022-12-13T03:53:51;12.77;;;5.15;;
67941;SDS011;54731;42.600;23.476;2022-12-13T03:59:10;100.65;;;26.55;;
67941;SDS011;54731;42.600;23.476;2022-12-13T04:01:38;66.45;;;19.70;;
67941;SDS011;54731;42.600;23.476;2022-12-13T04:04:04;21.83;;;7.85;;
67941;SDS011;54731;42.600;23.476;2022-12-13T04:06:35;13.27;;;5.03;;
67941;SDS011;54731;42.600;23.476;2022-12-13T04:09:04;8.30;;;4.82;;
67941;SDS011;54731;42.600;23.476;2022-12-13T04:11:32;10.90;;;4.10;;
67941;SDS011;54731;42.600;23.476;2022-12-13T04:13:57;9.97;;;3.93;;
67941;SDS011;54731;42.600;23.476;2022-12-13T04:16:23;9.73;;;4.97;;
67941;SDS011;54731;42.600;23.476;2022-12-13T04:18:49;8.02;;;4.68;;
67941;SDS011;54731;42.600;23.476;2022-12-13T04:21:14;10.25;;;5.05;;
67941;SDS011;54731;42.600;23.476;2022-12-13T04:23:40;9.65;;;5.20;;
67941;SDS011;54731;42.600;23.476;2022-12-13T04:26:06;8.77;;;4.73;;
67941;SDS011;54731;42.600;23.476;2022-12-13T04:28:31;9.38;;;4.32;;
67941;SDS011;54731;42.600;23.476;2022-12-13T04:30:57;7.63;;;4.40;;
67941;SDS011;54731;42.600;23.476;2022-12-13T04:33:23;9.87;;;5.00;;
67941;SDS011;54731;42.600;23.476;2022-12-13T04:35:52;8.00;;;4.45;;
67941;SDS011;54731;42.600;23.476;2022-12-13T04:38:17;7.78;;;4.00;;
67941;SDS011;54731;42.600;23.476;2022-12-13T04:40:43;12.55;;;5.43;;
67941;SDS011;54731;42.600;23.476;2022-12-13T04:43:11;14.88;;;6.88;;
67941;SDS011;54731;42.600;23.476;2022-12-13T04:45:39;14.77;;;6.93;;
67941;SDS011;54731;42.600;23.476;2022-12-13T04:48:07;16.33;;;8.07;;
67941;SDS011;54731;42.600;23.476;2022-12-13T04:50:33;18.67;;;9.40;;
67941;SDS011;54731;42.600;23.476;2022-12-13T04:52:59;29.95;;;11.10;;
67941;SDS011;54731;42.600;23.476;2022-12-13T04:55:24;38.27;;;14.37;;
67941;SDS011;54731;42.600;23.476;2022-12-13T04:57:50;45.70;;;18.33;;
67941;SDS011;54731;42.600;23.476;2022-12-13T05:00:15;83.43;;;32.33;;
67941;SDS011;54731;42.600;23.476;2022-12-13T05:02:41;74.57;;;29.53;;
67941;SDS011;54731;42.600;23.476;2022-12-13T05:05:07;40.78;;;18.33;;
67941;SDS011;54731;42.600;23.476;2022-12-13T05:07:34;38.00;;;16.10;;
67941;SDS011;54731;42.600;23.476;2022-12-13T05:10:00;30.52;;;14.35;;
67941;SDS011;54731;42.600;23.476;2022-12-13T05:12:25;30.77;;;13.37;;
67941;SDS011;54731;42.600;23.476;2022-12-13T05:14:51;29.90;;;14.35;;
67941;SDS011;54731;42.600;23.476;2022-12-13T05:17:18;48.20;;;21.75;;
67941;SDS011;54731;42.600;23.476;2022-12-13T05:19:46;26.10;;;12.03;;
67941;SDS011;54731;42.600;23.476;2022-12-13T05:22:12;15.30;;;9.07;;
67941;SDS011;54731;42.600;23.476;2022-12-13T05:24:37;26.30;;;12.73;;
67941;SDS011;54731;42.600;23.476;2022-12-13T05:27:03;37.30;;;15.70;;
67941;SDS011;54731;42.600;23.476;2022-12-13T05:29:36;32.10;;;13.80;;
67941;SDS011;54731;42.600;23.476;2022-12-13T05:32:07;34.38;;;14.80;;
67941;SDS011;54731;42.600;23.476;2022-12-13T05:34:33;26.00;;;9.68;;
67941;SDS011;54731;42.600;23.476;2022-12-13T05:36:58;20.52;;;8.93;;
67941;SDS011;54731;42.600;23.476;2022-12-13T05:39:27;33.72;;;17.63;;
67941;SDS011;54731;42.600;23.476;2022-12-13T05:41:56;24.10;;;13.75;;
67941;SDS011;54731;42.600;23.476;2022-12-13T05:44:23;14.50;;;7.18;;
67941;SDS011;54731;42.600;23.476;2022-12-13T05:46:51;11.07;;;5.63;;
67941;SDS011;54731;42.600;23.476;2022-12-13T05:49:17;12.33;;;6.23;;
67941;SDS011;54731;42.600;23.476;2022-12-13T05:51:45;14.45;;;7.57;;
67941;SDS011;54731;42.600;23.476;2022-12-13T05:54:10;19.30;;;9.50;;
67941;SDS011;54731;42.600;23.476;2022-12-13T05:56:36;20.42;;;9.52;;
67941;SDS011;54731;42.600;23.476;2022-12-13T05:59:02;18.80;;;8.73;;
67941;SDS011;54731;42.600;23.476;2022-12-13T06:01:30;18.00;;;8.30;;
67941;SDS011;54731;42.600;23.476;2022-12-13T06:03:56;15.57;;;7.30;;
67941;SDS011;54731;42.600;23.476;2022-12-13T06:06:21;13.35;;;7.25;;
67941;SDS011;54731;42.600;23.476;2022-12-13T06:09:01;14.55;;;7.63;;
67941;SDS011;54731;42.600;23.476;2022-12-13T06:11:27;17.23;;;7.93;;
67941;SDS011;54731;42.600;23.476;2022-12-13T06:13:55;17.35;;;8.85;;
67941;SDS011;54731;42.600;23.476;2022-12-13T06:16:24;16.08;;;8.15;;
67941;SDS011;54731;42.600;23.476;2022-12-13T06:18:50;22.08;;;11.70;;
67941;SDS011;54731;42.600;23.476;2022-12-13T06:21:19;21.50;;;10.98;;
67941;SDS011;54731;42.600;23.476;2022-12-13T06:23:45;17.05;;;8.20;;
67941;SDS011;54731;42.600;23.476;2022-12-13T06:26:13;16.27;;;7.87;;
67941;SDS011;54731;42.600;23.476;2022-12-13T06:28:42;16.70;;;8.40;;
67941;SDS011;54731;42.600;23.476;2022-12-13T06:31:08;17.67;;;8.60;;
67941;SDS011;54731;42.600;23.476;2022-12-13T06:33:33;17.70;;;8.47;;
67941;SDS011;54731;42.600;23.476;2022-12-13T06:36:02;23.13;;;9.88;;
67941;SDS011;54731;42.600;23.476;2022-12-13T06:38:34;27.20;;;11.40;;
67941;SDS011;54731;42.600;23.476;2022-12-13T06:41:12;44.80;;;16.00;;
67941;SDS011;54731;42.600;23.476;2022-12-13T06:43:41;38.05;;;13.52;;
67941;SDS011;54731;42.600;23.476;2022-12-13T06:46:07;33.22;;;13.32;;
67941;SDS011;54731;42.600;23.476;2022-12-13T06:48:33;33.47;;;12.33;;
67941;SDS011;54731;42.600;23.476;2022-12-13T06:51:02;30.03;;;12.73;;
67941;SDS011;54731;42.600;23.476;2022-12-13T06:53:28;28.48;;;13.10;;
67941;SDS011;54731;42.600;23.476;2022-12-13T06:55:54;15.90;;;9.20;;
67941;SDS011;54731;42.600;23.476;2022-12-13T06:58:19;20.10;;;9.00;;
67941;SDS011;54731;42.600;23.476;2022-12-13T07:00:45;22.37;;;10.30;;
67941;SDS011;54731;42.600;23.476;2022-12-13T07:03:10;19.70;;;8.73;;
67941;SDS011;54731;42.600;23.476;2022-12-13T07:05:36;14.30;;;7.13;;
67941;SDS011;54731;42.600;23.476;2022-12-13T07:08:02;20.70;;;9.07;;
67941;SDS011;54731;42.600;23.476;2022-12-13T07:10:28;26.50;;;10.03;;
67941;SDS011;54731;42.600;23.476;2022-12-13T07:12:56;25.63;;;10.70;;
67941;SDS011;54731;42.600;23.476;2022-12-13T07:15:21;34.80;;;14.23;;
67941;SDS011;54731;42.600;23.476;2022-12-13T07:17:50;27.27;;;11.63;;
67941;SDS011;54731;42.600;23.476;2022-12-13T07:20:16;17.67;;;9.93;;
67941;SDS011;54731;42.600;23.476;2022-12-13T07:22:42;33.22;;;13.30;;
67941;SDS011;54731;42.600;23.476;2022-12-13T07:25:07;36.83;;;13.90;;
67941;SDS011;54731;42.600;23.476;2022-12-13T07:27:36;29.48;;;13.77;;
67941;SDS011;54731;42.600;23.476;2022-12-13T07:30:01;25.37;;;12.90;;
67941;SDS011;54731;42.600;23.476;2022-12-13T07:32:27;18.67;;;9.05;;
67941;SDS011;54731;42.600;23.476;2022-12-13T07:34:53;22.87;;;8.20;;
67941;SDS011;54731;42.600;23.476;2022-12-13T07:37:18;18.88;;;9.27;;
67941;SDS011;54731;42.600;23.476;2022-12-13T07:39:44;17.63;;;8.87;;
67941;SDS011;54731;42.600;23.476;2022-12-13T07:42:09;16.70;;;7.97;;
67941;SDS011;54731;42.600;23.476;2022-12-13T07:44:34;17.23;;;8.20;;
67941;SDS011;54731;42.600;23.476;2022-12-13T07:47:00;23.80;;;11.50;;
67941;SDS011;54731;42.600;23.476;2022-12-13T07:49:25;29.53;;;13.27;;
67941;SDS011;54731;42.600;23.476;2022-12-13T07:51:50;25.90;;;10.98;;
67941;SDS011;54731;42.600;23.476;2022-12-13T07:54:16;19.38;;;9.15;;
67941;SDS011;54731;42.600;23.476;2022-12-13T07:56:41;20.10;;;9.20;;
67941;SDS011;54731;42.600;23.476;2022-12-13T07:59:07;23.13;;;11.60;;
67941;SDS011;54731;42.600;23.476;2022-12-13T08:01:33;31.83;;;12.30;;
67941;SDS011;54731;42.600;23.476;2022-12-13T08:03:59;25.03;;;10.83;;
67941;SDS011;54731;42.600;23.476;2022-12-13T08:06:25;17.38;;;9.00;;
67941;SDS011;54731;42.600;23.476;2022-12-13T08:08:54;16.50;;;8.03;;
67941;SDS011;54731;42.600;23.476;2022-12-13T08:11:20;17.67;;;9.52;;
67941;SDS011;54731;42.600;23.476;2022-12-13T08:13:45;18.03;;;8.43;;
67941;SDS011;54731;42.600;23.476;2022-12-13T08:16:11;19.20;;;8.90;;
67941;SDS011;54731;42.600;23.476;2022-12-13T08:18:37;15.98;;;7.50;;
67941;SDS011;54731;42.600;23.476;2022-12-13T08:21:03;14.53;;;7.80;;
67941;SDS011;54731;42.600;23.476;2022-12-13T08:23:31;14.80;;;7.40;;
67941;SDS011;54731;42.600;23.476;2022-12-13T08:25:57;16.60;;;7.10;;
67941;SDS011;54731;42.600;23.476;2022-12-13T08:28:24;21.48;;;9.05;;
67941;SDS011;54731;42.600;23.476;2022-12-13T08:30:49;17.55;;;9.82;;
67941;SDS011;54731;42.600;23.476;2022-12-13T08:33:15;22.97;;;9.63;;
67941;SDS011;54731;42.600;23.476;2022-12-13T08:35:40;20.53;;;8.70;;
67941;SDS011;54731;42.600;23.476;2022-12-13T08:38:06;24.67;;;10.83;;
67941;SDS011;54731;42.600;23.476;2022-12-13T08:40:31;52.17;;;20.67;;
67941;SDS011;54731;42.600;23.476;2022-12-13T08:42:57;29.70;;;13.53;;
67941;SDS011;54731;42.600;23.476;2022-12-13T08:45:22;26.63;;;10.57;;
67941;SDS011;54731;42.600;23.476;2022-12-13T08:47:47;26.77;;;11.60;;
67941;SDS011;54731;42.600;23.476;2022-12-13T08:50:13;22.10;;;9.70;;
67941;SDS011;54731;42.600;23.476;2022-12-13T08:52:38;32.13;;;11.57;;
67941;SDS011;54731;42.600;23.476;2022-12-13T08:55:03;24.27;;;11.47;;
67941;SDS011;54731;42.600;23.476;2022-12-13T08:57:29;35.00;;;16.50;;
67941;SDS011;54731;42.600;23.476;2022-12-13T08:59:54;30.90;;;15.03;;
67941;SDS011;54731;42.600;23.476;2022-12-13T09:02:20;21.63;;;11.27;;
67941;SDS011;54731;42.600;23.476;2022-12-13T09:04:45;20.30;;;9.27;;
67941;SDS011;54731;42.600;23.476;2022-12-13T09:07:10;15.50;;;8.13;;
67941;SDS011;54731;42.600;23.476;2022-12-13T09:09:36;19.10;;;7.82;;
67941;SDS011;54731;42.600;23.476;2022-12-13T09:12:01;21.37;;;9.23;;
67941;SDS011;54731;42.600;23.476;2022-12-13T09:14:27;18.08;;;9.68;;
67941;SDS011;54731;42.600;23.476;2022-12-13T09:16:52;16.10;;;8.97;;
67941;SDS011;54731;42.600;23.476;2022-12-13T09:19:18;20.60;;;9.53;;
67941;SDS011;54731;42.600;23.476;2022-12-13T09:38:58;17.65;;;9.95;;
67941;SDS011;54731;42.600;23.476;2022-12-13T09:41:28;34.95;;;16.02;;
67941;SDS011;54731;42.600;23.476;2022-12-13T09:43:57;26.50;;;12.30;;
67941;SDS011;54731;42.600;23.476;2022-12-13T09:46:28;19.58;;;8.63;;
67941;SDS011;54731;42.600;23.476;2022-12-13T09:48:56;22.23;;;11.13;;
67941;SDS011;54731;42.600;23.476;2022-12-13T09:51:23;27.17;;;12.50;;
67941;SDS011;54731;42.600;23.476;2022-12-13T09:53:49;26.13;;;13.70;;
67941;SDS011;54731;42.600;23.476;2022-12-13T09:56:17;25.07;;;11.93;;
67941;SDS011;54731;42.600;23.476;2022-12-13T09:58:44;19.00;;;9.20;;
67941;SDS011;54731;42.600;23.476;2022-12-13T10:01:12;27.33;;;14.07;;
67941;SDS011;54731;42.600;23.476;2022-12-13T10:03:39;21.83;;;11.10;;
67941;SDS011;54731;42.600;23.476;2022-12-13T10:06:11;29.55;;;14.68;;
67941;SDS011;54731;42.600;23.476;2022-12-13T10:23:11;16.60;;;9.10;;
67941;SDS011;54731;42.600;23.476;2022-12-13T10:25:47;12.87;;;7.43;;
67941;SDS011;54731;42.600;23.476;2022-12-13T10:28:15;14.65;;;8.27;;
67941;SDS011;54731;42.600;23.476;2022-12-13T10:30:42;17.27;;;8.82;;
67941;SDS011;54731;42.600;23.476;2022-12-13T10:33:17;16.90;;;9.47;;
67941;SDS011;54731;42.600;23.476;2022-12-13T10:36:05;19.63;;;10.52;;
67941;SDS011;54731;42.600;23.476;2022-12-13T10:38:33;22.27;;;11.00;;
67941;SDS011;54731;42.600;23.476;2022-12-13T10:41:01;22.65;;;10.60;;
67941;SDS011;54731;42.600;23.476;2022-12-13T10:43:26;19.77;;;9.27;;
67941;SDS011;54731;42.600;23.476;2022-12-13T10:45:56;18.60;;;9.07;;
67941;SDS011;54731;42.600;23.476;2022-12-13T10:48:35;20.05;;;8.57;;
67941;SDS011;54731;42.600;23.476;2022-12-13T10:51:11;16.45;;;7.90;;
67941;SDS011;54731;42.600;23.476;2022-12-13T10:53:39;15.15;;;7.30;;
67941;SDS011;54731;42.600;23.476;2022-12-13T10:56:12;16.95;;;8.88;;
67941;SDS011;54731;42.600;23.476;2022-12-13T10:58:39;19.50;;;8.27;;
67941;SDS011;54731;42.600;23.476;2022-12-13T11:01:10;13.43;;;6.95;;
67941;SDS011;54731;42.600;23.476;2022-12-13T11:03:42;16.17;;;7.85;;
67941;SDS011;54731;42.600;23.476;2022-12-13T11:06:20;15.18;;;8.52;;
67941;SDS011;54731;42.600;23.476;2022-12-13T11:08:46;14.33;;;8.37;;
67941;SDS011;54731;42.600;23.476;2022-12-13T11:11:25;16.57;;;9.07;;
67941;SDS011;54731;42.600;23.476;2022-12-13T11:13:53;14.88;;;8.00;;
67941;SDS011;54731;42.600;23.476;2022-12-13T11:16:25;22.00;;;10.73;;
67941;SDS011;54731;42.600;23.476;2022-12-13T11:18:55;20.95;;;10.57;;
67941;SDS011;54731;42.600;23.476;2022-12-13T11:21:22;18.60;;;10.07;;
67941;SDS011;54731;42.600;23.476;2022-12-13T11:23:50;20.35;;;10.98;;
67941;SDS011;54731;42.600;23.476;2022-12-13T11:41:13;38.35;;;20.08;;
67941;SDS011;54731;42.600;23.476;2022-12-13T11:43:55;34.65;;;15.70;;
67941;SDS011;54731;42.600;23.476;2022-12-13T11:46:28;78.18;;;34.63;;
67941;SDS011;54731;42.600;23.476;2022-12-13T11:49:02;29.88;;;15.43;;
67941;SDS011;54731;42.600;23.476;2022-12-13T12:04:19;25.45;;;15.15;;
67941;SDS011;54731;42.600;23.476;2022-12-13T12:07:08;21.95;;;12.57;;
67941;SDS011;54731;42.600;23.476;2022-12-13T12:09:37;24.70;;;12.10;;
67941;SDS011;54731;42.600;23.476;2022-12-13T12:12:15;44.58;;;20.38;;
67941;SDS011;54731;42.600;23.476;2022-12-13T12:17:47;46.45;;;23.20;;
67941;SDS011;54731;42.600;23.476;2022-12-13T12:20:13;46.33;;;22.80;;
67941;SDS011;54731;42.600;23.476;2022-12-13T12:22:58;36.53;;;17.95;;
67941;SDS011;54731;42.600;23.476;2022-12-13T12:25:50;29.30;;;17.90;;
67941;SDS011;54731;42.600;23.476;2022-12-13T12:29:07;58.75;;;37.35;;
67941;SDS011;54731;42.600;23.476;2022-12-13T12:31:17;46.45;;;29.92;;
67941;SDS011;54731;42.600;23.476;2022-12-13T12:44:44;16.58;;;8.85;;
67941;SDS011;54731;42.600;23.476;2022-12-13T13:01:24;40.58;;;22.30;;
67941;SDS011;54731;42.600;23.476;2022-12-13T13:03:56;16.95;;;8.00;;
67941;SDS011;54731;42.600;23.476;2022-12-13T13:06:26;19.83;;;9.25;;
67941;SDS011;54731;42.600;23.476;2022-12-13T13:09:06;24.15;;;12.43;;
67941;SDS011;54731;42.600;23.476;2022-12-13T13:11:34;37.78;;;19.83;;
67941;SDS011;54731;42.600;23.476;2022-12-13T13:17:43;29.83;;;15.40;;
67941;SDS011;54731;42.600;23.476;2022-12-13T13:20:10;28.33;;;14.18;;
67941;SDS011;54731;42.600;23.476;2022-12-13T13:22:45;25.08;;;12.77;;
67941;SDS011;54731;42.600;23.476;2022-12-13T13:25:24;22.55;;;10.55;;
67941;SDS011;54731;42.600;23.476;2022-12-13T13:27:59;19.67;;;9.60;;
67941;SDS011;54731;42.600;23.476;2022-12-13T13:30:26;16.42;;;9.00;;
67941;SDS011;54731;42.600;23.476;2022-12-13T13:32:53;17.63;;;10.00;;
67941;SDS011;54731;42.600;23.476;2022-12-13T13:40:48;22.10;;;11.90;;
67941;SDS011;54731;42.600;23.476;2022-12-13T13:43:15;27.13;;;13.85;;
67941;SDS011;54731;42.600;23.476;2022-12-13T14:10:25;57.78;;;18.13;;
67941;SDS011;54731;42.600;23.476;2022-12-13T14:29:56;82.10;;;35.63;;
67941;SDS011;54731;42.600;23.476;2022-12-13T14:32:24;54.08;;;26.48;;
67941;SDS011;54731;42.600;23.476;2022-12-13T14:34:52;77.72;;;31.73;;
67941;SDS011;54731;42.600;23.476;2022-12-13T14:37:27;29.98;;;13.73;;
67941;SDS011;54731;42.600;23.476;2022-12-13T14:39:55;22.92;;;12.57;;
67941;SDS011;54731;42.600;23.476;2022-12-13T14:42:23;33.75;;;16.27;;
67941;SDS011;54731;42.600;23.476;2022-12-13T14:45:11;30.90;;;18.83;;
67941;SDS011;54731;42.600;23.476;2022-12-13T14:47:45;26.90;;;17.23;;
67941;SDS011;54731;42.600;23.476;2022-12-13T14:50:12;247.20;;;79.33;;
67941;SDS011;54731;42.600;23.476;2022-12-13T14:52:41;453.67;;;147.95;;
67941;SDS011;54731;42.600;23.476;2022-12-13T14:55:20;268.35;;;95.93;;
67941;SDS011;54731;42.600;23.476;2022-12-13T14:57:50;134.10;;;36.80;;
67941;SDS011;54731;42.600;23.476;2022-12-13T15:02:54;28.05;;;12.30;;
67941;SDS011;54731;42.600;23.476;2022-12-13T15:05:29;15.73;;;8.02;;
67941;SDS011;54731;42.600;23.476;2022-12-13T15:07:57;18.00;;;11.00;;
67941;SDS011;54731;42.600;23.476;2022-12-13T15:13:01;46.97;;;18.55;;
67941;SDS011;54731;42.600;23.476;2022-12-13T15:18:03;22.73;;;11.48;;
67941;SDS011;54731;42.600;23.476;2022-12-13T15:20:37;16.88;;;9.55;;
67941;SDS011;54731;42.600;23.476;2022-12-13T15:23:05;18.55;;;10.05;;
67941;SDS011;54731;42.600;23.476;2022-12-13T15:25:34;32.60;;;14.73;;
67941;SDS011;54731;42.600;23.476;2022-12-13T15:28:00;33.17;;;16.83;;
67941;SDS011;54731;42.600;23.476;2022-12-13T15:30:30;13.00;;;8.03;;
67941;SDS011;54731;42.600;23.476;2022-12-13T15:33:05;15.30;;;8.38;;
67941;SDS011;54731;42.600;23.476;2022-12-13T15:35:40;16.90;;;7.97;;
67941;SDS011;54731;42.600;23.476;2022-12-13T15:38:08;24.40;;;13.67;;
67941;SDS011;54731;42.600;23.476;2022-12-13T15:40:46;29.88;;;22.67;;
67941;SDS011;54731;42.600;23.476;2022-12-13T15:43:16;23.67;;;14.30;;
67941;SDS011;54731;42.600;23.476;2022-12-13T15:45:47;13.05;;;9.10;;
67941;SDS011;54731;42.600;23.476;2022-12-13T15:51:13;8.55;;;5.95;;
67941;SDS011;54731;42.600;23.476;2022-12-13T15:56:28;7.57;;;4.53;;
67941;SDS011;54731;42.600;23.476;2022-12-13T15:58:58;6.85;;;3.67;;
67941;SDS011;54731;42.600;23.476;2022-12-13T16:01:25;6.20;;;4.00;;
67941;SDS011;54731;42.600;23.476;2022-12-13T16:03:52;9.25;;;4.88;;
67941;SDS011;54731;42.600;23.476;2022-12-13T16:06:17;6.60;;;4.20;;
67941;SDS011;54731;42.600;23.476;2022-12-13T16:08:44;8.82;;;5.07;;
67941;SDS011;54731;42.600;23.476;2022-12-13T16:11:28;9.80;;;5.78;;
67941;SDS011;54731;42.600;23.476;2022-12-13T16:14:14;13.68;;;5.30;;
67941;SDS011;54731;42.600;23.476;2022-12-13T16:17:08;11.95;;;5.72;;
67941;SDS011;54731;42.600;23.476;2022-12-13T16:19:50;12.98;;;7.22;;
67941;SDS011;54731;42.600;23.476;2022-12-13T16:22:19;12.07;;;6.78;;
67941;SDS011;54731;42.600;23.476;2022-12-13T16:24:44;8.23;;;4.35;;
67941;SDS011;54731;42.600;23.476;2022-12-13T16:27:10;8.80;;;4.90;;
67941;SDS011;54731;42.600;23.476;2022-12-13T16:29:35;8.53;;;4.90;;
67941;SDS011;54731;42.600;23.476;2022-12-13T16:32:00;8.83;;;5.30;;
67941;SDS011;54731;42.600;23.476;2022-12-13T16:34:26;7.97;;;5.00;;
67941;SDS011;54731;42.600;23.476;2022-12-13T16:36:54;9.88;;;6.18;;
67941;SDS011;54731;42.600;23.476;2022-12-13T16:39:19;7.67;;;4.77;;
67941;SDS011;54731;42.600;23.476;2022-12-13T16:41:44;10.20;;;5.30;;
67941;SDS011;54731;42.600;23.476;2022-12-13T16:47:01;7.57;;;4.37;;
67941;SDS011;54731;42.600;23.476;2022-12-13T16:49:31;8.88;;;5.40;;
67941;SDS011;54731;42.600;23.476;2022-12-13T16:51:57;11.07;;;6.60;;
67941;SDS011;54731;42.600;23.476;2022-12-13T16:54:23;15.10;;;7.47;;
67941;SDS011;54731;42.600;23.476;2022-12-13T16:56:49;24.60;;;12.32;;
67941;SDS011;54731;42.600;23.476;2022-12-13T16:59:17;17.60;;;8.65;;
67941;SDS011;54731;42.600;23.476;2022-12-13T17:01:44;22.05;;;10.50;;
67941;SDS011;54731;42.600;23.476;2022-12-13T17:04:11;16.65;;;7.78;;
67941;SDS011;54731;42.600;23.476;2022-12-13T17:06:37;28.17;;;14.47;;
67941;SDS011;54731;42.600;23.476;2022-12-13T17:09:03;34.85;;;17.50;;
67941;SDS011;54731;42.600;23.476;2022-12-13T17:11:30;25.37;;;10.67;;
67941;SDS011;54731;42.600;23.476;2022-12-13T17:13:56;21.75;;;9.80;;
67941;SDS011;54731;42.600;23.476;2022-12-13T17:16:22;51.83;;;21.10;;
67941;SDS011;54731;42.600;23.476;2022-12-13T17:18:47;70.50;;;28.33;;
67941;SDS011;54731;42.600;23.476;2022-12-13T17:21:13;43.60;;;17.00;;
67941;SDS011;54731;42.600;23.476;2022-12-13T17:23:38;42.73;;;21.10;;
67941;SDS011;54731;42.600;23.476;2022-12-13T17:26:07;32.77;;;18.50;;
67941;SDS011;54731;42.600;23.476;2022-12-13T17:28:34;13.68;;;6.75;;
67941;SDS011;54731;42.600;23.476;2022-12-13T17:31:17;9.63;;;5.43;;
67941;SDS011;54731;42.600;23.476;2022-12-13T17:33:43;9.75;;;6.63;;
67941;SDS011;54731;42.600;23.476;2022-12-13T17:36:10;10.98;;;7.50;;
67941;SDS011;54731;42.600;23.476;2022-12-13T17:38:39;8.85;;;5.25;;